Griffing Park, Texas
Current Conditions -  °F | °C
As of 12:53 PM on Friday 31 Oct 2014 (Local Time) from KBPT Reporting Station
Clear Clear  
Wind Chill: 78°   Ceiling: Unl
Heat Index: 78°   Visibility: 10mi
Dew Point: 46°   Wind: 16mph
Humidity: 32%   Direction: 340°NNW
Pressure: 30.14"   Gusts: 22mph
Location:  29.7569°N, 94.1898°W
Report Text: KBPT 311753Z 34014G19KT 10SM CLR 26/08 A3014 RMK AO2 SLP206 T02560078 10256 20111 58003
Loading
Personal Weather Stations






























Interactive Weather Map
Tropical Storm Tracking
New forecast layout! Learn more

10-Day Weather Forecast

Advertisements
Track Severe Weather on mobile